createdAt,value
2018-09-30T00:01:34.315Z,55.31
2018-09-30T00:04:00.630Z,55.50
2018-09-30T00:06:26.950Z,55.33
2018-09-30T00:08:53.265Z,55.41
2018-09-30T00:11:19.582Z,55.66
2018-09-30T00:13:45.897Z,55.91
2018-09-30T00:16:12.213Z,55.99
2018-09-30T00:18:38.527Z,55.92
2018-09-30T00:21:04.842Z,56.18
2018-09-30T00:23:31.162Z,56.15
2018-09-30T00:25:57.473Z,56.34
2018-09-30T00:28:23.793Z,56.39
2018-09-30T00:30:50.120Z,56.35
2018-09-30T00:33:16.431Z,56.40
2018-09-30T00:35:42.753Z,56.53
2018-09-30T00:38:09.068Z,56.87
2018-09-30T00:40:35.392Z,56.92
2018-09-30T00:43:01.712Z,57.01
2018-09-30T00:45:28.025Z,57.32
2018-09-30T00:47:54.362Z,57.52
2018-09-30T00:50:20.673Z,57.61
2018-09-30T00:52:46.990Z,57.10
2018-09-30T00:55:13.305Z,56.89
2018-09-30T00:57:39.623Z,56.93
2018-09-30T01:00:05.941Z,56.74
2018-09-30T01:02:32.438Z,56.89
2018-09-30T01:04:58.758Z,56.78
2018-09-30T01:07:25.074Z,56.76
2018-09-30T01:09:51.393Z,56.83
2018-09-30T01:12:17.711Z,56.74
2018-09-30T01:14:44.030Z,56.65
2018-09-30T01:17:10.387Z,56.73
2018-09-30T01:19:36.703Z,56.79
2018-09-30T01:22:03.019Z,56.63
2018-09-30T01:24:29.329Z,56.86
2018-09-30T01:26:55.685Z,57.01
2018-09-30T01:29:22.004Z,57.00
2018-09-30T01:31:48.317Z,57.14
2018-09-30T01:34:14.638Z,57.34
2018-09-30T01:36:40.951Z,57.38
2018-09-30T01:39:07.303Z,57.65
2018-09-30T01:41:33.622Z,57.87
2018-09-30T01:43:59.942Z,57.91
2018-09-30T01:46:26.261Z,57.92
2018-09-30T01:48:52.579Z,58.35
2018-09-30T01:51:18.893Z,58.70
2018-09-30T01:53:45.209Z,58.69
2018-09-30T01:56:11.531Z,58.95
2018-09-30T01:58:37.845Z,59.10
2018-09-30T02:01:04.161Z,59.57
2018-09-30T02:03:30.478Z,59.88
2018-09-30T02:05:56.837Z,60.34
2018-09-30T02:08:23.153Z,60.67
2018-09-30T02:10:49.513Z,60.74
2018-09-30T02:13:15.833Z,60.98
2018-09-30T02:15:42.153Z,61.22
2018-09-30T02:18:08.461Z,61.60
2018-09-30T02:20:34.782Z,61.58
2018-09-30T02:23:01.093Z,61.66
2018-09-30T02:25:27.419Z,61.80
2018-09-30T02:27:53.737Z,62.09
2018-09-30T02:30:20.059Z,62.24
2018-09-30T02:32:46.373Z,62.06
2018-09-30T02:35:12.695Z,62.30
2018-09-30T02:37:39.010Z,62.24
2018-09-30T02:40:05.330Z,62.41
2018-09-30T02:42:31.649Z,62.31
2018-09-30T02:44:57.959Z,62.25
2018-09-30T02:47:24.274Z,62.45
2018-09-30T02:49:50.586Z,62.71
2018-09-30T02:52:16.906Z,62.79
2018-09-30T02:54:43.221Z,62.87
2018-09-30T02:57:09.543Z,62.84
2018-09-30T02:59:35.859Z,62.77
2018-09-30T03:02:02.169Z,62.95
2018-09-30T03:04:28.491Z,62.92
2018-09-30T03:06:54.807Z,63.02
2018-09-30T03:09:21.141Z,63.07
2018-09-30T03:11:47.457Z,63.01
2018-09-30T03:14:13.775Z,63.06
2018-09-30T03:16:40.093Z,63.07
2018-09-30T03:19:06.455Z,62.84
2018-09-30T03:21:32.766Z,62.71
2018-09-30T03:23:59.085Z,62.52
2018-09-30T03:26:25.406Z,62.56
2018-09-30T03:28:51.727Z,62.21
2018-09-30T03:31:18.041Z,62.25
2018-09-30T03:33:45.375Z,61.98
2018-09-30T03:36:10.714Z,62.02
2018-09-30T03:38:37.032Z,62.00
2018-09-30T03:41:03.356Z,62.11
2018-09-30T03:43:29.676Z,62.09
2018-09-30T03:45:55.985Z,62.16
2018-09-30T03:48:22.332Z,62.11
2018-09-30T03:50:48.687Z,62.08
2018-09-30T03:53:14.997Z,62.06
2018-09-30T03:55:41.350Z,61.93
2018-09-30T03:58:07.669Z,62.02
2018-09-30T04:00:33.987Z,62.07
2018-09-30T04:03:00.302Z,62.19
2018-09-30T04:05:26.622Z,61.83
2018-09-30T04:07:52.936Z,62.15
2018-09-30T04:10:19.250Z,62.16
2018-09-30T04:12:45.569Z,62.34
2018-09-30T04:15:11.882Z,62.18
2018-09-30T04:17:38.199Z,62.26
2018-09-30T04:20:04.518Z,62.37
2018-09-30T04:22:30.835Z,62.30
2018-09-30T04:24:57.157Z,62.37
2018-09-30T04:27:23.472Z,62.25
2018-09-30T04:29:49.785Z,62.30
2018-09-30T04:32:16.098Z,62.23
2018-09-30T04:34:42.415Z,62.11
2018-09-30T04:37:08.763Z,62.21
2018-09-30T04:39:35.049Z,62.45
2018-09-30T04:42:01.362Z,62.57
2018-09-30T04:44:27.682Z,62.84
2018-09-30T04:46:53.991Z,62.92
2018-09-30T04:49:20.306Z,62.98
2018-09-30T04:51:46.621Z,62.84
2018-09-30T04:54:12.939Z,63.09
2018-09-30T04:56:39.253Z,63.09
2018-09-30T04:59:05.576Z,63.05
2018-09-30T05:01:31.885Z,63.12
2018-09-30T05:03:58.206Z,63.18
2018-09-30T05:06:24.524Z,63.51
2018-09-30T05:08:50.844Z,63.87
2018-09-30T05:11:17.163Z,64.22
2018-09-30T05:13:43.481Z,64.36
2018-09-30T05:16:09.846Z,64.40
2018-09-30T05:18:36.154Z,64.91
2018-09-30T05:21:02.473Z,65.24
2018-09-30T05:23:28.785Z,65.47
2018-09-30T05:25:55.100Z,65.54
2018-09-30T05:28:21.463Z,65.79
2018-09-30T05:30:47.777Z,65.74
2018-09-30T05:33:14.095Z,65.75
2018-09-30T05:35:40.418Z,65.98
2018-09-30T05:38:06.829Z,65.69
2018-09-30T05:40:33.104Z,65.82
2018-09-30T05:42:59.462Z,65.84
2018-09-30T05:45:25.779Z,65.57
2018-09-30T05:47:52.113Z,68.49
2018-09-30T05:50:18.449Z,68.01
2018-09-30T05:52:44.811Z,68.77
2018-09-30T05:55:11.122Z,70.41
2018-09-30T05:57:37.447Z,70.46
2018-09-30T06:00:03.800Z,72.15
2018-09-30T06:02:30.116Z,72.20
2018-09-30T06:04:56.437Z,72.04
2018-09-30T06:07:22.754Z,73.12
2018-09-30T06:09:49.073Z,73.37
2018-09-30T06:12:15.464Z,73.31
2018-09-30T06:14:41.786Z,73.42
2018-09-30T06:17:08.098Z,73.48
2018-09-30T06:19:34.420Z,73.70
2018-09-30T06:22:00.737Z,74.54
2018-09-30T06:24:27.056Z,74.54
2018-09-30T06:26:53.365Z,74.62
2018-09-30T06:29:19.691Z,74.21
2018-09-30T06:31:46.253Z,74.50
2018-09-30T06:34:12.502Z,74.64
2018-09-30T06:36:38.818Z,75.73
2018-09-30T06:39:05.134Z,74.53
2018-09-30T06:41:31.449Z,74.11
2018-09-30T06:43:57.766Z,74.47
2018-09-30T06:46:24.084Z,74.07
2018-09-30T06:48:50.402Z,73.64
2018-09-30T06:51:16.726Z,72.98
2018-09-30T06:53:43.051Z,72.67
2018-09-30T06:56:09.365Z,71.60
2018-09-30T06:58:35.700Z,71.35
2018-09-30T07:01:02.017Z,72.77
2018-09-30T07:03:28.336Z,74.30
2018-09-30T07:05:54.647Z,74.01
2018-09-30T07:08:20.994Z,74.75
2018-09-30T07:10:47.347Z,81.14
2018-09-30T07:13:13.638Z,77.82
2018-09-30T07:15:40.054Z,76.59
2018-09-30T07:18:06.369Z,77.32
2018-09-30T07:20:32.686Z,78.98
2018-09-30T07:22:59.013Z,78.87
2018-09-30T07:25:25.328Z,80.16
2018-09-30T07:27:51.650Z,81.25
2018-09-30T07:30:17.963Z,81.76
2018-09-30T07:32:44.297Z,82.65
2018-09-30T07:35:10.624Z,82.91
2018-09-30T07:37:36.937Z,83.12
2018-09-30T07:40:03.265Z,82.71
2018-09-30T07:42:29.585Z,79.46
2018-09-30T07:44:55.905Z,80.13
2018-09-30T07:47:22.224Z,84.46
2018-09-30T07:49:48.539Z,84.21
2018-09-30T07:52:14.854Z,84.15
2018-09-30T07:54:41.173Z,86.68
2018-09-30T07:57:07.492Z,86.18
2018-09-30T07:59:33.807Z,86.04
2018-09-30T08:02:00.127Z,87.03
2018-09-30T08:04:26.441Z,89.33
2018-09-30T08:06:52.764Z,91.23
2018-09-30T08:09:19.091Z,91.50
2018-09-30T08:11:45.405Z,92.54
2018-09-30T08:14:11.713Z,92.07
2018-09-30T08:16:38.091Z,94.30
2018-09-30T08:19:04.390Z,92.28
2018-09-30T08:21:31.044Z,91.32
2018-09-30T08:23:57.376Z,89.66
2018-09-30T08:26:23.683Z,88.12
2018-09-30T08:28:50.005Z,87.67
2018-09-30T08:31:16.326Z,87.47
2018-09-30T08:33:42.663Z,86.52
2018-09-30T08:36:08.989Z,87.54
2018-09-30T08:38:35.352Z,87.77
2018-09-30T08:41:01.707Z,87.30
2018-09-30T08:43:28.026Z,87.47
2018-09-30T08:45:54.353Z,86.63
2018-09-30T08:48:20.654Z,86.86
2018-09-30T08:50:46.975Z,88.74
2018-09-30T08:53:13.295Z,88.79
2018-09-30T08:55:39.628Z,86.11
2018-09-30T08:58:05.939Z,84.59
2018-09-30T09:00:32.258Z,84.95
2018-09-30T09:02:58.589Z,86.43
2018-09-30T09:05:24.900Z,85.56
2018-09-30T09:07:51.223Z,85.71
2018-09-30T09:10:17.543Z,85.09
2018-09-30T09:12:43.860Z,86.20
2018-09-30T09:15:10.178Z,87.22
2018-09-30T09:17:36.499Z,88.52
2018-09-30T09:20:02.824Z,88.97
2018-09-30T09:22:29.178Z,89.56
2018-09-30T09:24:55.462Z,89.55
2018-09-30T09:27:21.781Z,91.14
2018-09-30T09:29:48.104Z,91.60
2018-09-30T09:32:14.422Z,90.56
2018-09-30T09:34:40.741Z,89.60
2018-09-30T09:37:07.072Z,88.16
2018-09-30T09:39:33.385Z,87.85
2018-09-30T09:41:59.705Z,87.13
2018-09-30T09:44:26.033Z,86.66
2018-09-30T09:46:52.395Z,85.34
2018-09-30T09:49:18.674Z,86.46
2018-09-30T09:51:44.998Z,86.01
2018-09-30T09:54:11.324Z,84.98
2018-09-30T09:56:37.648Z,85.19
2018-09-30T09:59:03.988Z,85.95
2018-09-30T10:01:30.281Z,89.38
2018-09-30T10:03:56.603Z,90.05
2018-09-30T10:06:22.985Z,90.67
2018-09-30T10:08:49.314Z,92.15
2018-09-30T10:11:15.630Z,93.96
2018-09-30T10:13:41.955Z,92.23
2018-09-30T10:16:08.283Z,93.69
2018-09-30T10:18:34.594Z,92.91
2018-09-30T10:21:00.917Z,93.00
2018-09-30T10:23:27.243Z,92.82
2018-09-30T10:25:53.567Z,92.88
2018-09-30T10:28:19.882Z,91.23
2018-09-30T10:30:46.208Z,92.36
2018-09-30T10:33:12.524Z,91.71
2018-09-30T10:35:38.849Z,91.55
2018-09-30T10:38:05.171Z,92.29
2018-09-30T10:40:31.544Z,92.36
2018-09-30T10:42:57.860Z,92.13
2018-09-30T10:45:24.187Z,91.88
2018-09-30T10:47:50.506Z,92.35
2018-09-30T10:50:16.828Z,92.91
2018-09-30T10:52:43.153Z,93.48
2018-09-30T10:55:09.507Z,94.81
2018-09-30T10:57:35.803Z,94.49
2018-09-30T11:00:02.116Z,94.88
2018-09-30T11:02:28.440Z,95.06
2018-09-30T11:04:54.759Z,95.54
2018-09-30T11:07:21.074Z,94.34
2018-09-30T11:09:47.473Z,94.99
2018-09-30T11:12:13.714Z,94.99
2018-09-30T11:14:40.042Z,94.22
2018-09-30T11:17:06.361Z,93.62
2018-09-30T11:19:32.682Z,93.86
2018-09-30T11:21:58.998Z,93.85
2018-09-30T11:24:25.425Z,93.36
2018-09-30T11:26:51.946Z,93.86
2018-09-30T11:29:18.355Z,93.29
2018-09-30T11:31:44.716Z,94.24
2018-09-30T11:34:11.085Z,93.81
2018-09-30T11:36:37.593Z,92.40
2018-09-30T11:39:04.110Z,92.93
2018-09-30T11:41:30.433Z,92.46
2018-09-30T11:43:56.977Z,93.50
2018-09-30T11:46:23.295Z,93.15
2018-09-30T11:48:49.660Z,92.78
2018-09-30T11:51:15.981Z,93.07
2018-09-30T11:53:42.335Z,93.67
2018-09-30T11:56:08.655Z,93.27
2018-09-30T11:58:34.979Z,91.87
2018-09-30T12:01:01.331Z,92.09
2018-09-30T12:03:27.631Z,91.53
2018-09-30T12:05:53.996Z,91.49
2018-09-30T12:08:20.315Z,90.89
2018-09-30T12:10:46.676Z,92.06
2018-09-30T12:13:12.996Z,92.74
2018-09-30T12:15:39.321Z,93.21
2018-09-30T12:18:05.644Z,93.15
2018-09-30T12:20:31.961Z,92.63
2018-09-30T12:22:58.284Z,92.16
2018-09-30T12:25:24.604Z,90.81
2018-09-30T12:27:50.928Z,89.18
2018-09-30T12:30:17.247Z,88.10
2018-09-30T12:32:43.567Z,88.22
2018-09-30T12:35:09.884Z,87.24
2018-09-30T12:37:36.203Z,86.71
2018-09-30T12:40:02.525Z,85.79
2018-09-30T12:42:28.837Z,87.42
2018-09-30T12:44:55.163Z,88.31
2018-09-30T12:47:21.488Z,87.88
2018-09-30T12:49:47.811Z,86.58
2018-09-30T12:52:14.128Z,85.17
2018-09-30T12:54:40.453Z,86.15
2018-09-30T12:57:06.784Z,87.21
2018-09-30T12:59:33.103Z,88.19
2018-09-30T13:01:59.421Z,87.54
2018-09-30T13:04:25.750Z,86.17
2018-09-30T13:06:52.068Z,84.22
2018-09-30T13:09:18.387Z,80.45
2018-09-30T13:11:44.708Z,81.12
2018-09-30T13:14:11.027Z,77.09
2018-09-30T13:16:37.353Z,78.02
2018-09-30T13:19:03.673Z,80.94
2018-09-30T13:21:30.007Z,80.00
2018-09-30T13:23:56.331Z,79.57
2018-09-30T13:26:22.684Z,81.43
2018-09-30T13:28:48.999Z,80.69
2018-09-30T13:31:15.323Z,81.81
2018-09-30T13:33:41.639Z,83.33
2018-09-30T13:36:07.958Z,81.89
2018-09-30T13:38:34.275Z,80.96
2018-09-30T13:41:00.696Z,80.58
2018-09-30T13:43:26.916Z,81.64
2018-09-30T13:45:53.260Z,82.11
2018-09-30T13:48:19.647Z,81.76
2018-09-30T13:50:45.984Z,83.62
2018-09-30T13:53:12.308Z,77.39
2018-09-30T13:55:38.694Z,77.89
2018-09-30T13:58:05.024Z,80.32
2018-09-30T14:00:31.352Z,80.20
2018-09-30T14:02:57.668Z,81.24
2018-09-30T14:05:24.027Z,79.82
2018-09-30T14:07:50.347Z,80.77
2018-09-30T14:10:16.668Z,81.93
2018-09-30T14:12:42.981Z,81.96
2018-09-30T14:15:09.313Z,79.92
2018-09-30T14:17:35.640Z,77.99
2018-09-30T14:20:01.959Z,77.52
2018-09-30T14:22:28.283Z,75.73
2018-09-30T14:24:54.619Z,75.67
2018-09-30T14:30:08.916Z,77.51
2018-09-30T14:32:43.055Z,80.23
2018-09-30T14:38:06.828Z,82.42
2018-09-30T14:40:33.164Z,81.49
2018-09-30T14:42:59.483Z,82.09
2018-09-30T14:45:25.810Z,81.56
2018-09-30T14:47:52.126Z,81.60
2018-09-30T14:50:18.446Z,83.13
2018-09-30T14:52:44.812Z,82.00
2018-09-30T14:55:11.122Z,82.66
2018-09-30T14:57:37.444Z,80.95
2018-09-30T15:00:03.996Z,80.63
2018-09-30T15:02:30.318Z,82.37
2018-09-30T15:04:56.730Z,78.97
2018-09-30T15:07:23.134Z,79.62
2018-09-30T15:09:49.384Z,80.60
2018-09-30T15:12:15.710Z,79.94
2018-09-30T15:14:42.037Z,79.96
2018-09-30T15:17:08.376Z,79.92
2018-09-30T15:19:34.702Z,80.52
2018-09-30T15:22:01.027Z,80.26
2018-09-30T15:24:27.346Z,81.06
2018-09-30T15:26:53.672Z,81.10
2018-09-30T15:29:19.995Z,79.72
2018-09-30T15:31:46.316Z,83.38
2018-09-30T15:34:12.633Z,82.04
2018-09-30T15:36:38.954Z,83.37
2018-09-30T15:39:05.271Z,82.91
2018-09-30T15:41:31.594Z,79.35
2018-09-30T15:43:57.914Z,81.21
2018-09-30T15:46:24.238Z,82.40
2018-09-30T15:48:50.567Z,82.00
2018-09-30T15:51:16.925Z,82.34
2018-09-30T15:53:43.252Z,82.30
2018-09-30T15:56:09.608Z,83.67
2018-09-30T15:58:35.942Z,83.42
2018-09-30T16:01:02.296Z,83.49
2018-09-30T16:03:28.623Z,82.85
2018-09-30T16:05:54.943Z,84.06
2018-09-30T16:08:21.271Z,84.26
2018-09-30T16:10:47.591Z,85.20
2018-09-30T16:13:13.992Z,85.47
2018-09-30T16:15:40.256Z,85.08
2018-09-30T16:18:06.582Z,85.49
2018-09-30T16:20:32.925Z,84.54
2018-09-30T16:22:59.242Z,84.20
2018-09-30T16:25:25.584Z,85.27
2018-09-30T16:27:51.926Z,86.22
2018-09-30T16:30:18.244Z,87.19
2018-09-30T16:32:44.653Z,87.25
2018-09-30T16:35:11.103Z,87.63
2018-09-30T16:37:37.428Z,87.88
2018-09-30T16:40:03.771Z,87.97
2018-09-30T16:42:30.175Z,88.14
2018-09-30T16:44:56.618Z,87.83
2018-09-30T16:47:23.052Z,88.41
2018-09-30T16:49:49.385Z,87.22
2018-09-30T16:52:15.740Z,87.35
2018-09-30T16:54:42.255Z,87.87
2018-09-30T16:57:08.596Z,88.07
2018-09-30T16:59:34.935Z,88.04
2018-09-30T17:02:01.281Z,87.94
2018-09-30T17:04:27.603Z,86.95
2018-09-30T17:06:54.118Z,87.18
2018-09-30T17:09:20.452Z,88.19
2018-09-30T17:11:46.827Z,87.61
2018-09-30T17:14:13.490Z,87.48
2018-09-30T17:16:39.816Z,86.94
2018-09-30T17:19:06.134Z,87.09
2018-09-30T17:21:32.456Z,86.95
2018-09-30T17:23:58.785Z,87.55
2018-09-30T17:26:25.161Z,88.09
2018-09-30T17:28:51.593Z,87.25
2018-09-30T17:31:17.950Z,87.71
2018-09-30T17:33:44.315Z,87.83
2018-09-30T17:36:10.681Z,87.79
2018-09-30T17:38:37.000Z,87.85
2018-09-30T17:41:03.360Z,87.45
2018-09-30T17:43:29.687Z,87.62
2018-09-30T17:45:56.060Z,88.04
2018-09-30T17:48:22.384Z,87.17
2018-09-30T17:50:48.702Z,87.54
2018-09-30T17:53:15.028Z,88.01
2018-09-30T17:55:41.353Z,87.53
2018-09-30T17:58:07.689Z,87.06
2018-09-30T18:00:35.694Z,87.24
2018-09-30T18:03:02.409Z,87.68
2018-09-30T18:05:28.727Z,88.14
2018-09-30T18:07:55.487Z,88.06
2018-09-30T18:10:22.019Z,87.90
2018-09-30T18:12:48.548Z,88.40
2018-09-30T18:15:15.084Z,88.32
2018-09-30T18:17:41.495Z,88.21
2018-09-30T18:20:08.162Z,88.87
2018-09-30T18:22:34.696Z,87.91
2018-09-30T18:25:01.567Z,87.44
2018-09-30T18:27:28.238Z,88.39
2018-09-30T18:29:55.047Z,88.66
2018-09-30T18:32:21.705Z,88.44
2018-09-30T18:34:48.424Z,88.67
2018-09-30T18:37:15.063Z,88.48
2018-09-30T18:39:41.576Z,88.40
2018-09-30T18:42:08.107Z,88.85
2018-09-30T18:44:34.874Z,88.72
2018-09-30T18:47:01.319Z,88.90
2018-09-30T18:49:27.785Z,89.73
2018-09-30T18:51:54.228Z,89.00
2018-09-30T18:54:20.602Z,88.41
2018-09-30T18:56:46.924Z,88.49
2018-09-30T18:59:13.248Z,89.20
2018-09-30T19:01:39.622Z,89.04
2018-09-30T19:04:05.976Z,89.18
2018-09-30T19:06:32.306Z,89.97
2018-09-30T19:08:58.630Z,89.80
2018-09-30T19:11:24.956Z,90.20
2018-09-30T19:13:51.321Z,90.17
2018-09-30T19:16:17.780Z,90.13
2018-09-30T19:18:44.000Z,90.41
2018-09-30T19:21:10.318Z,90.57
2018-09-30T19:23:36.735Z,90.34
2018-09-30T19:26:03.064Z,90.56
2018-09-30T19:28:29.859Z,90.67
2018-09-30T19:30:56.221Z,90.85
2018-09-30T19:33:23.958Z,90.60
2018-09-30T19:35:48.889Z,90.58
2018-09-30T19:38:15.232Z,90.43
2018-09-30T19:40:41.565Z,90.71
2018-09-30T19:43:07.986Z,90.77
2018-09-30T19:45:34.308Z,90.03
2018-09-30T19:48:00.628Z,90.41
2018-09-30T19:50:26.952Z,90.40
2018-09-30T19:52:53.307Z,89.90
2018-09-30T19:55:19.686Z,90.15
2018-09-30T19:57:46.011Z,90.80
2018-09-30T20:00:12.341Z,90.44
2018-09-30T20:02:38.671Z,90.39
2018-09-30T20:05:04.987Z,90.41
2018-09-30T20:07:31.330Z,90.83
2018-09-30T20:09:57.673Z,91.01
2018-09-30T20:12:23.987Z,90.90
2018-09-30T20:14:50.314Z,91.31
2018-09-30T20:17:16.634Z,91.34
2018-09-30T20:19:42.958Z,91.05
2018-09-30T20:22:09.280Z,91.05
2018-09-30T20:24:35.596Z,91.26
2018-09-30T20:27:01.917Z,91.29
2018-09-30T20:29:28.236Z,91.17
2018-09-30T20:31:54.555Z,91.64
2018-09-30T20:34:20.876Z,92.10
2018-09-30T20:36:47.196Z,91.73
2018-09-30T20:39:13.515Z,91.53
2018-09-30T20:41:39.870Z,91.32
2018-09-30T20:44:06.192Z,90.85
2018-09-30T20:46:32.511Z,90.68
2018-09-30T20:48:58.935Z,90.48
2018-09-30T20:51:25.197Z,90.21
2018-09-30T20:53:51.521Z,89.31
2018-09-30T20:56:17.837Z,89.57
2018-09-30T20:58:44.158Z,89.39
2018-09-30T21:01:10.479Z,89.61
2018-09-30T21:03:36.802Z,89.33
2018-09-30T21:06:03.126Z,89.29
2018-09-30T21:08:29.441Z,89.58
2018-09-30T21:10:55.761Z,90.15
2018-09-30T21:13:22.080Z,90.34
2018-09-30T21:15:48.435Z,89.89
2018-09-30T21:18:14.760Z,89.56
2018-09-30T21:20:41.123Z,89.40
2018-09-30T21:23:07.548Z,89.83
2018-09-30T21:25:33.923Z,90.21
2018-09-30T21:28:00.247Z,89.81
2018-09-30T21:30:26.574Z,90.08
2018-09-30T21:32:52.895Z,90.10
2018-09-30T21:35:19.218Z,90.00
2018-09-30T21:37:45.581Z,89.67
2018-09-30T21:40:11.903Z,89.71
2018-09-30T21:42:38.219Z,89.75
2018-09-30T21:45:04.541Z,89.53
2018-09-30T21:47:30.873Z,89.30
2018-09-30T21:49:57.205Z,89.63
2018-09-30T21:52:23.543Z,89.81
2018-09-30T21:54:49.871Z,89.31
2018-09-30T21:57:16.291Z,89.59
2018-09-30T21:59:42.621Z,89.79
2018-09-30T22:02:08.957Z,90.20
2018-09-30T22:04:35.289Z,90.57
2018-09-30T22:07:01.632Z,90.56
2018-09-30T22:09:27.972Z,90.46
2018-09-30T22:11:54.305Z,90.46
2018-09-30T22:14:20.677Z,90.67
2018-09-30T22:16:47.025Z,90.78
2018-09-30T22:19:13.416Z,90.10
2018-09-30T22:21:39.699Z,89.80
2018-09-30T22:24:06.034Z,90.18
2018-09-30T22:26:32.373Z,90.08
2018-09-30T22:28:58.689Z,89.94
2018-09-30T22:31:25.013Z,90.29
2018-09-30T22:33:51.339Z,89.31
2018-09-30T22:36:17.654Z,89.44
2018-09-30T22:38:43.969Z,89.15
2018-09-30T22:41:10.283Z,88.99
2018-09-30T22:43:36.598Z,89.38
2018-09-30T22:46:02.969Z,88.99
2018-09-30T22:48:29.285Z,88.67
2018-09-30T22:50:55.605Z,89.57
2018-09-30T22:53:21.991Z,89.91
2018-09-30T22:55:48.247Z,90.11
2018-09-30T22:58:14.565Z,89.75
2018-09-30T23:00:40.896Z,89.92
2018-09-30T23:03:07.201Z,89.29
2018-09-30T23:05:33.517Z,89.27
2018-09-30T23:07:59.833Z,88.96
2018-09-30T23:10:26.152Z,88.83
2018-09-30T23:12:52.470Z,89.65
2018-09-30T23:15:18.791Z,89.48
2018-09-30T23:17:45.107Z,89.10
2018-09-30T23:20:11.417Z,89.71
2018-09-30T23:22:37.738Z,89.28
2018-09-30T23:25:04.056Z,89.16
2018-09-30T23:27:30.366Z,89.19
2018-09-30T23:29:56.688Z,89.55
2018-09-30T23:32:23.004Z,89.73
2018-09-30T23:34:49.331Z,90.31
2018-09-30T23:37:15.646Z,90.74
2018-09-30T23:39:41.978Z,90.94
2018-09-30T23:42:08.287Z,90.51
2018-09-30T23:44:34.611Z,90.71
2018-09-30T23:47:00.926Z,91.00
2018-09-30T23:49:27.252Z,91.23
2018-09-30T23:51:53.607Z,91.30
2018-09-30T23:54:19.920Z,91.49
2018-09-30T23:56:46.236Z,91.54
2018-09-30T23:59:12.550Z,91.95
